Aérodrome :
LOGIN :

S'inscrire | Disclaimer

   EN    FR    IT 

 










Légende :    VFR   VFR Marginal   IFR   IFR Intensif   IFR Très Intensif
Visi : 
Plafond : 
>= 8 km
>= 3000ft
5 à 8 km
1000 à 3000 ft
1500m à 5 km
500 à 1000 ft
800 à 1500m
200 à 500 ft
< 800m
< 200 ft
Symboles :   Orages  Brouillard  Fortes neiges  Fortes précipitations  Vent > 20 kt
SIGMETs :   Divers  Orages  Givrage  Turbulence  Onde Orograph.  Cendres Volcan.






- Altitude de l'aérodrome : 138 ft
- Code IATA : RLG


ETNL - Rostock Laage

DERNIER METAR :
  • 060620Z 22011G22KT 8000 BKN008 03/02 Q1005 GRN GRN TEMPO YLO

METARs EXPIRÉS :
  • 060520Z 22012KT 8000 -RA BKN010 03/01 Q1006 GRN GRN TEMPO YLO
  • 060420Z 22014G24KT 9999 BKN014 03/M00 Q1006 GRN

TAF AMD TAF ETNL
Valide du 06 à 06h jusqu'au 06 à 15h UTC


060520Z 0606/0615 21015G25KT 4000 -RA BKN010
TEMPO 0606/0608 23018G28KT 3000 RADZ BKN006
TEMPO 0608/0615 21012G22KT 2000 RADZ BKN003 BY ETGL



MET'MAP, la Météo Aéronautique d'un coup d'oeil ! - Copyright ORBIFLY Décembre 2007 - Disclaimer

ORBIFLY MET'MAP TEAM :

Programmation & Développement : Alexandra Zaïnal
Sur une idée originale de : Baudouin d'Aumeries
Assistance à la programmation : Marc-Olivier Méhu
Soutien technique & logistique : Manuel Goepfert

Contact : metmap@orbifly.com




SOURCES & CREDITS :

   NOAA